sensor_id;sensor_type;location;lat;lon;timestamp;P1;durP1;ratioP1;P2;durP2;ratioP2
20142;SDS011;10509;46.476;7.134;2023-03-23T00:02:29;2.17;;;1.43;;
20142;SDS011;10509;46.476;7.134;2023-03-23T00:05:01;1.03;;;0.70;;
20142;SDS011;10509;46.476;7.134;2023-03-23T00:07:28;1.40;;;0.80;;
20142;SDS011;10509;46.476;7.134;2023-03-23T00:09:55;1.67;;;0.80;;
20142;SDS011;10509;46.476;7.134;2023-03-23T00:12:25;1.80;;;0.80;;
20142;SDS011;10509;46.476;7.134;2023-03-23T00:15:03;0.90;;;0.70;;
20142;SDS011;10509;46.476;7.134;2023-03-23T00:17:29;2.00;;;0.80;;
20142;SDS011;10509;46.476;7.134;2023-03-23T00:19:58;1.33;;;0.70;;
20142;SDS011;10509;46.476;7.134;2023-03-23T00:22:26;1.67;;;1.00;;
20142;SDS011;10509;46.476;7.134;2023-03-23T00:24:52;1.17;;;0.60;;
20142;SDS011;10509;46.476;7.134;2023-03-23T00:27:18;1.13;;;0.70;;
20142;SDS011;10509;46.476;7.134;2023-03-23T00:29:46;1.10;;;0.90;;
20142;SDS011;10509;46.476;7.134;2023-03-23T00:32:12;1.63;;;0.90;;
20142;SDS011;10509;46.476;7.134;2023-03-23T00:34:39;1.30;;;0.80;;
20142;SDS011;10509;46.476;7.134;2023-03-23T00:37:08;1.97;;;0.90;;
20142;SDS011;10509;46.476;7.134;2023-03-23T00:39:34;1.27;;;0.70;;
20142;SDS011;10509;46.476;7.134;2023-03-23T00:42:02;1.60;;;0.80;;
20142;SDS011;10509;46.476;7.134;2023-03-23T00:44:29;1.60;;;0.77;;
20142;SDS011;10509;46.476;7.134;2023-03-23T00:46:55;1.13;;;0.77;;
20142;SDS011;10509;46.476;7.134;2023-03-23T00:49:22;0.97;;;0.60;;
20142;SDS011;10509;46.476;7.134;2023-03-23T00:51:55;1.03;;;0.70;;
20142;SDS011;10509;46.476;7.134;2023-03-23T00:54:22;0.70;;;0.60;;
20142;SDS011;10509;46.476;7.134;2023-03-23T00:56:48;1.10;;;0.70;;
20142;SDS011;10509;46.476;7.134;2023-03-23T00:59:15;1.43;;;0.60;;
20142;SDS011;10509;46.476;7.134;2023-03-23T01:01:41;1.03;;;0.70;;
20142;SDS011;10509;46.476;7.134;2023-03-23T01:04:07;1.43;;;0.70;;
20142;SDS011;10509;46.476;7.134;2023-03-23T01:06:37;1.27;;;0.80;;
20142;SDS011;10509;46.476;7.134;2023-03-23T01:09:04;1.17;;;0.77;;
20142;SDS011;10509;46.476;7.134;2023-03-23T01:11:30;2.87;;;0.60;;
20142;SDS011;10509;46.476;7.134;2023-03-23T01:13:57;0.77;;;0.70;;
20142;SDS011;10509;46.476;7.134;2023-03-23T01:16:23;0.80;;;0.60;;
20142;SDS011;10509;46.476;7.134;2023-03-23T01:18:49;1.73;;;0.63;;
20142;SDS011;10509;46.476;7.134;2023-03-23T01:21:16;1.20;;;0.60;;
20142;SDS011;10509;46.476;7.134;2023-03-23T01:23:43;0.93;;;0.57;;
20142;SDS011;10509;46.476;7.134;2023-03-23T01:26:10;0.77;;;0.60;;
20142;SDS011;10509;46.476;7.134;2023-03-23T01:28:37;0.90;;;0.70;;
20142;SDS011;10509;46.476;7.134;2023-03-23T01:31:03;0.93;;;0.70;;
20142;SDS011;10509;46.476;7.134;2023-03-23T01:33:30;1.57;;;0.90;;
20142;SDS011;10509;46.476;7.134;2023-03-23T01:35:57;2.00;;;1.00;;
20142;SDS011;10509;46.476;7.134;2023-03-23T01:38:23;2.37;;;0.80;;
20142;SDS011;10509;46.476;7.134;2023-03-23T01:40:49;1.70;;;0.90;;
20142;SDS011;10509;46.476;7.134;2023-03-23T01:43:16;0.93;;;0.77;;
20142;SDS011;10509;46.476;7.134;2023-03-23T01:45:42;0.83;;;0.80;;
20142;SDS011;10509;46.476;7.134;2023-03-23T01:50:36;1.23;;;0.77;;
20142;SDS011;10509;46.476;7.134;2023-03-23T01:53:04;1.23;;;0.83;;
20142;SDS011;10509;46.476;7.134;2023-03-23T01:55:33;2.40;;;0.90;;
20142;SDS011;10509;46.476;7.134;2023-03-23T01:58:00;2.70;;;1.20;;
20142;SDS011;10509;46.476;7.134;2023-03-23T02:00:26;3.07;;;1.03;;
20142;SDS011;10509;46.476;7.134;2023-03-23T02:02:52;1.00;;;0.80;;
20142;SDS011;10509;46.476;7.134;2023-03-23T02:05:20;1.80;;;0.90;;
20142;SDS011;10509;46.476;7.134;2023-03-23T02:07:48;1.10;;;0.80;;
20142;SDS011;10509;46.476;7.134;2023-03-23T02:10:14;3.27;;;0.90;;
20142;SDS011;10509;46.476;7.134;2023-03-23T02:12:40;1.00;;;0.60;;
20142;SDS011;10509;46.476;7.134;2023-03-23T02:15:06;0.90;;;0.80;;
20142;SDS011;10509;46.476;7.134;2023-03-23T02:31:16;1.27;;;0.60;;
20142;SDS011;10509;46.476;7.134;2023-03-23T02:33:46;1.03;;;0.80;;
20142;SDS011;10509;46.476;7.134;2023-03-23T02:41:16;1.73;;;0.83;;
20142;SDS011;10509;46.476;7.134;2023-03-23T02:43:44;1.67;;;0.70;;
20142;SDS011;10509;46.476;7.134;2023-03-23T02:46:11;0.87;;;0.77;;
20142;SDS011;10509;46.476;7.134;2023-03-23T02:48:38;1.17;;;0.80;;
20142;SDS011;10509;46.476;7.134;2023-03-23T02:51:06;1.27;;;1.00;;
20142;SDS011;10509;46.476;7.134;2023-03-23T02:53:33;1.60;;;0.83;;
20142;SDS011;10509;46.476;7.134;2023-03-23T02:56:00;1.93;;;0.80;;
20142;SDS011;10509;46.476;7.134;2023-03-23T02:58:27;2.30;;;1.00;;
20142;SDS011;10509;46.476;7.134;2023-03-23T03:00:54;1.73;;;0.70;;
20142;SDS011;10509;46.476;7.134;2023-03-23T03:03:22;1.87;;;0.80;;
20142;SDS011;10509;46.476;7.134;2023-03-23T03:13:34;1.40;;;0.60;;
20142;SDS011;10509;46.476;7.134;2023-03-23T03:18:50;7.23;;;0.80;;
20142;SDS011;10509;46.476;7.134;2023-03-23T03:21:17;1.00;;;0.60;;
20142;SDS011;10509;46.476;7.134;2023-03-23T03:23:50;0.93;;;0.60;;
20142;SDS011;10509;46.476;7.134;2023-03-23T03:26:18;0.80;;;0.60;;
20142;SDS011;10509;46.476;7.134;2023-03-23T03:28:46;3.63;;;0.80;;
20142;SDS011;10509;46.476;7.134;2023-03-23T03:31:17;1.70;;;0.70;;
20142;SDS011;10509;46.476;7.134;2023-03-23T03:33:43;1.07;;;0.70;;
20142;SDS011;10509;46.476;7.134;2023-03-23T03:36:14;0.87;;;0.50;;
20142;SDS011;10509;46.476;7.134;2023-03-23T03:38:44;0.73;;;0.70;;
20142;SDS011;10509;46.476;7.134;2023-03-23T03:41:10;1.07;;;0.60;;
20142;SDS011;10509;46.476;7.134;2023-03-23T03:43:36;1.83;;;0.60;;
20142;SDS011;10509;46.476;7.134;2023-03-23T03:46:02;0.80;;;0.70;;
20142;SDS011;10509;46.476;7.134;2023-03-23T03:48:28;1.23;;;0.50;;
20142;SDS011;10509;46.476;7.134;2023-03-23T03:50:54;0.87;;;0.60;;
20142;SDS011;10509;46.476;7.134;2023-03-23T03:53:22;1.10;;;0.70;;
20142;SDS011;10509;46.476;7.134;2023-03-23T03:55:48;1.13;;;0.70;;
20142;SDS011;10509;46.476;7.134;2023-03-23T03:58:15;1.30;;;0.70;;
20142;SDS011;10509;46.476;7.134;2023-03-23T04:00:41;1.90;;;0.70;;
20142;SDS011;10509;46.476;7.134;2023-03-23T04:03:07;3.53;;;0.73;;
20142;SDS011;10509;46.476;7.134;2023-03-23T04:05:34;2.23;;;0.83;;
20142;SDS011;10509;46.476;7.134;2023-03-23T04:08:02;2.20;;;0.80;;
20142;SDS011;10509;46.476;7.134;2023-03-23T04:10:29;1.57;;;0.80;;
20142;SDS011;10509;46.476;7.134;2023-03-23T04:12:55;0.83;;;0.70;;
20142;SDS011;10509;46.476;7.134;2023-03-23T04:15:21;1.73;;;0.70;;
20142;SDS011;10509;46.476;7.134;2023-03-23T04:17:47;2.63;;;0.60;;
20142;SDS011;10509;46.476;7.134;2023-03-23T04:20:15;1.33;;;0.80;;
20142;SDS011;10509;46.476;7.134;2023-03-23T04:22:46;1.63;;;0.90;;
20142;SDS011;10509;46.476;7.134;2023-03-23T04:25:17;1.43;;;0.80;;
20142;SDS011;10509;46.476;7.134;2023-03-23T04:27:46;0.70;;;0.70;;
20142;SDS011;10509;46.476;7.134;2023-03-23T04:30:18;1.07;;;0.60;;
20142;SDS011;10509;46.476;7.134;2023-03-23T04:32:44;2.27;;;0.80;;
20142;SDS011;10509;46.476;7.134;2023-03-23T04:35:12;1.30;;;1.00;;
20142;SDS011;10509;46.476;7.134;2023-03-23T04:37:38;0.97;;;0.83;;
20142;SDS011;10509;46.476;7.134;2023-03-23T04:40:06;1.80;;;0.80;;
20142;SDS011;10509;46.476;7.134;2023-03-23T04:42:36;1.17;;;0.80;;
20142;SDS011;10509;46.476;7.134;2023-03-23T04:45:03;1.07;;;0.70;;
20142;SDS011;10509;46.476;7.134;2023-03-23T04:47:31;1.77;;;0.73;;
20142;SDS011;10509;46.476;7.134;2023-03-23T04:49:58;1.80;;;0.80;;
20142;SDS011;10509;46.476;7.134;2023-03-23T04:52:24;0.80;;;0.70;;
20142;SDS011;10509;46.476;7.134;2023-03-23T04:54:51;1.53;;;0.63;;
20142;SDS011;10509;46.476;7.134;2023-03-23T04:57:17;1.30;;;0.80;;
20142;SDS011;10509;46.476;7.134;2023-03-23T04:59:43;2.00;;;0.80;;
20142;SDS011;10509;46.476;7.134;2023-03-23T05:02:10;1.50;;;0.80;;
20142;SDS011;10509;46.476;7.134;2023-03-23T05:04:38;2.37;;;0.80;;
20142;SDS011;10509;46.476;7.134;2023-03-23T05:07:05;1.93;;;0.80;;
20142;SDS011;10509;46.476;7.134;2023-03-23T05:09:31;5.40;;;0.90;;
20142;SDS011;10509;46.476;7.134;2023-03-23T05:11:57;1.07;;;0.80;;
20142;SDS011;10509;46.476;7.134;2023-03-23T05:14:24;1.23;;;0.70;;
20142;SDS011;10509;46.476;7.134;2023-03-23T05:16:51;1.17;;;0.87;;
20142;SDS011;10509;46.476;7.134;2023-03-23T05:19:17;0.80;;;0.70;;
20142;SDS011;10509;46.476;7.134;2023-03-23T05:21:43;8.57;;;1.60;;
20142;SDS011;10509;46.476;7.134;2023-03-23T05:24:09;0.90;;;0.80;;
20142;SDS011;10509;46.476;7.134;2023-03-23T05:26:36;1.30;;;0.93;;
20142;SDS011;10509;46.476;7.134;2023-03-23T05:29:02;4.80;;;1.00;;
20142;SDS011;10509;46.476;7.134;2023-03-23T05:31:28;1.90;;;1.10;;
20142;SDS011;10509;46.476;7.134;2023-03-23T05:33:54;2.43;;;1.60;;
20142;SDS011;10509;46.476;7.134;2023-03-23T05:36:20;3.00;;;1.87;;
20142;SDS011;10509;46.476;7.134;2023-03-23T05:38:47;7.07;;;1.47;;
20142;SDS011;10509;46.476;7.134;2023-03-23T05:41:14;3.43;;;1.23;;
20142;SDS011;10509;46.476;7.134;2023-03-23T05:43:40;3.37;;;1.23;;
20142;SDS011;10509;46.476;7.134;2023-03-23T05:46:07;2.30;;;1.20;;
20142;SDS011;10509;46.476;7.134;2023-03-23T05:48:33;4.17;;;1.13;;
20142;SDS011;10509;46.476;7.134;2023-03-23T05:50:59;2.40;;;1.13;;
20142;SDS011;10509;46.476;7.134;2023-03-23T05:53:26;3.47;;;1.00;;
20142;SDS011;10509;46.476;7.134;2023-03-23T05:55:52;2.70;;;1.30;;
20142;SDS011;10509;46.476;7.134;2023-03-23T05:58:18;9.07;;;2.33;;
20142;SDS011;10509;46.476;7.134;2023-03-23T06:00:44;2.60;;;1.20;;
20142;SDS011;10509;46.476;7.134;2023-03-23T06:03:11;2.53;;;1.00;;
20142;SDS011;10509;46.476;7.134;2023-03-23T06:05:46;6.63;;;1.40;;
20142;SDS011;10509;46.476;7.134;2023-03-23T06:08:12;5.67;;;1.50;;
20142;SDS011;10509;46.476;7.134;2023-03-23T06:10:38;5.40;;;1.43;;
20142;SDS011;10509;46.476;7.134;2023-03-23T06:13:04;12.03;;;2.13;;
20142;SDS011;10509;46.476;7.134;2023-03-23T06:15:31;8.73;;;3.40;;
20142;SDS011;10509;46.476;7.134;2023-03-23T06:17:58;10.53;;;2.13;;
20142;SDS011;10509;46.476;7.134;2023-03-23T06:20:24;4.80;;;1.83;;
20142;SDS011;10509;46.476;7.134;2023-03-23T06:22:50;19.90;;;3.70;;
20142;SDS011;10509;46.476;7.134;2023-03-23T06:25:17;6.60;;;2.13;;
20142;SDS011;10509;46.476;7.134;2023-03-23T06:27:44;4.93;;;2.30;;
20142;SDS011;10509;46.476;7.134;2023-03-23T06:30:11;11.67;;;2.53;;
20142;SDS011;10509;46.476;7.134;2023-03-23T06:32:40;4.90;;;1.47;;
20142;SDS011;10509;46.476;7.134;2023-03-23T06:35:06;5.07;;;1.30;;
20142;SDS011;10509;46.476;7.134;2023-03-23T06:37:34;3.43;;;1.40;;
20142;SDS011;10509;46.476;7.134;2023-03-23T06:40:01;1.17;;;0.80;;
20142;SDS011;10509;46.476;7.134;2023-03-23T06:42:29;8.73;;;1.70;;
20142;SDS011;10509;46.476;7.134;2023-03-23T06:44:55;5.47;;;1.40;;
20142;SDS011;10509;46.476;7.134;2023-03-23T06:47:22;1.73;;;1.10;;
20142;SDS011;10509;46.476;7.134;2023-03-23T06:49:49;2.90;;;1.30;;
20142;SDS011;10509;46.476;7.134;2023-03-23T06:52:15;2.80;;;1.37;;
20142;SDS011;10509;46.476;7.134;2023-03-23T06:54:41;2.27;;;0.90;;
20142;SDS011;10509;46.476;7.134;2023-03-23T06:57:07;4.30;;;0.97;;
20142;SDS011;10509;46.476;7.134;2023-03-23T06:59:33;2.47;;;0.93;;
20142;SDS011;10509;46.476;7.134;2023-03-23T07:01:59;4.13;;;1.30;;
20142;SDS011;10509;46.476;7.134;2023-03-23T07:04:26;2.90;;;1.10;;
20142;SDS011;10509;46.476;7.134;2023-03-23T07:06:52;3.47;;;1.10;;
20142;SDS011;10509;46.476;7.134;2023-03-23T07:09:19;3.23;;;1.30;;
20142;SDS011;10509;46.476;7.134;2023-03-23T07:11:45;16.37;;;2.57;;
20142;SDS011;10509;46.476;7.134;2023-03-23T07:14:12;4.27;;;2.10;;
20142;SDS011;10509;46.476;7.134;2023-03-23T07:16:38;3.33;;;1.30;;
20142;SDS011;10509;46.476;7.134;2023-03-23T07:19:04;2.13;;;1.23;;
20142;SDS011;10509;46.476;7.134;2023-03-23T07:21:31;3.40;;;1.57;;
20142;SDS011;10509;46.476;7.134;2023-03-23T07:23:57;2.13;;;1.10;;
20142;SDS011;10509;46.476;7.134;2023-03-23T07:26:23;4.23;;;1.47;;
20142;SDS011;10509;46.476;7.134;2023-03-23T07:28:49;5.37;;;1.47;;
20142;SDS011;10509;46.476;7.134;2023-03-23T07:31:15;5.97;;;1.40;;
20142;SDS011;10509;46.476;7.134;2023-03-23T07:33:41;5.07;;;1.43;;
20142;SDS011;10509;46.476;7.134;2023-03-23T07:36:08;3.07;;;1.10;;
20142;SDS011;10509;46.476;7.134;2023-03-23T07:38:35;8.37;;;2.20;;
20142;SDS011;10509;46.476;7.134;2023-03-23T07:41:01;2.80;;;1.60;;
20142;SDS011;10509;46.476;7.134;2023-03-23T07:43:28;3.83;;;2.60;;
20142;SDS011;10509;46.476;7.134;2023-03-23T07:45:54;4.90;;;3.23;;
20142;SDS011;10509;46.476;7.134;2023-03-23T07:48:21;5.00;;;2.00;;
20142;SDS011;10509;46.476;7.134;2023-03-23T07:50:47;7.23;;;1.87;;
20142;SDS011;10509;46.476;7.134;2023-03-23T07:53:13;3.83;;;1.97;;
20142;SDS011;10509;46.476;7.134;2023-03-23T07:55:39;6.13;;;5.20;;
20142;SDS011;10509;46.476;7.134;2023-03-23T07:58:05;2.90;;;2.37;;
20142;SDS011;10509;46.476;7.134;2023-03-23T08:00:32;3.53;;;2.60;;
20142;SDS011;10509;46.476;7.134;2023-03-23T08:02:58;9.27;;;2.90;;
20142;SDS011;10509;46.476;7.134;2023-03-23T08:05:25;10.23;;;2.83;;
20142;SDS011;10509;46.476;7.134;2023-03-23T08:07:55;2.40;;;1.63;;
20142;SDS011;10509;46.476;7.134;2023-03-23T08:10:21;6.73;;;1.60;;
20142;SDS011;10509;46.476;7.134;2023-03-23T08:12:50;5.23;;;1.67;;
20142;SDS011;10509;46.476;7.134;2023-03-23T08:15:17;5.93;;;2.00;;
20142;SDS011;10509;46.476;7.134;2023-03-23T08:17:43;3.40;;;1.70;;
20142;SDS011;10509;46.476;7.134;2023-03-23T08:20:10;7.43;;;2.27;;
20142;SDS011;10509;46.476;7.134;2023-03-23T08:22:38;4.83;;;1.80;;
20142;SDS011;10509;46.476;7.134;2023-03-23T08:25:05;6.00;;;1.47;;
20142;SDS011;10509;46.476;7.134;2023-03-23T08:27:31;6.63;;;1.33;;
20142;SDS011;10509;46.476;7.134;2023-03-23T08:29:58;2.17;;;1.17;;
20142;SDS011;10509;46.476;7.134;2023-03-23T08:32:24;5.30;;;1.20;;
20142;SDS011;10509;46.476;7.134;2023-03-23T08:34:51;5.00;;;1.23;;
20142;SDS011;10509;46.476;7.134;2023-03-23T08:37:17;4.90;;;1.43;;
20142;SDS011;10509;46.476;7.134;2023-03-23T08:39:43;9.63;;;2.03;;
20142;SDS011;10509;46.476;7.134;2023-03-23T08:42:09;3.67;;;1.20;;
20142;SDS011;10509;46.476;7.134;2023-03-23T08:44:36;5.60;;;1.10;;
20142;SDS011;10509;46.476;7.134;2023-03-23T08:47:03;4.00;;;1.17;;
20142;SDS011;10509;46.476;7.134;2023-03-23T08:49:30;5.77;;;1.67;;
20142;SDS011;10509;46.476;7.134;2023-03-23T08:51:57;2.67;;;1.20;;
20142;SDS011;10509;46.476;7.134;2023-03-23T08:54:23;3.03;;;1.40;;
20142;SDS011;10509;46.476;7.134;2023-03-23T08:56:49;2.47;;;1.30;;
20142;SDS011;10509;46.476;7.134;2023-03-23T08:59:16;11.23;;;1.97;;
20142;SDS011;10509;46.476;7.134;2023-03-23T09:01:42;3.47;;;1.30;;
20142;SDS011;10509;46.476;7.134;2023-03-23T09:04:08;3.27;;;1.20;;
20142;SDS011;10509;46.476;7.134;2023-03-23T09:06:35;4.13;;;1.70;;
20142;SDS011;10509;46.476;7.134;2023-03-23T09:09:04;1.50;;;1.20;;
20142;SDS011;10509;46.476;7.134;2023-03-23T09:11:32;5.57;;;2.00;;
20142;SDS011;10509;46.476;7.134;2023-03-23T09:13:58;4.20;;;1.53;;
20142;SDS011;10509;46.476;7.134;2023-03-23T09:16:24;8.73;;;2.03;;
20142;SDS011;10509;46.476;7.134;2023-03-23T09:18:51;3.77;;;1.60;;
20142;SDS011;10509;46.476;7.134;2023-03-23T09:21:17;6.07;;;2.63;;
20142;SDS011;10509;46.476;7.134;2023-03-23T09:23:43;2.13;;;1.80;;
20142;SDS011;10509;46.476;7.134;2023-03-23T09:26:10;8.10;;;2.23;;
20142;SDS011;10509;46.476;7.134;2023-03-23T09:28:36;4.33;;;1.83;;
20142;SDS011;10509;46.476;7.134;2023-03-23T09:31:02;4.70;;;1.20;;
20142;SDS011;10509;46.476;7.134;2023-03-23T09:33:29;1.60;;;1.10;;
20142;SDS011;10509;46.476;7.134;2023-03-23T09:35:58;5.07;;;1.53;;
20142;SDS011;10509;46.476;7.134;2023-03-23T09:38:24;1.87;;;1.17;;
20142;SDS011;10509;46.476;7.134;2023-03-23T09:46:00;2.63;;;1.10;;
20142;SDS011;10509;46.476;7.134;2023-03-23T09:50:58;2.00;;;0.83;;
20142;SDS011;10509;46.476;7.134;2023-03-23T09:56:18;3.77;;;0.90;;
20142;SDS011;10509;46.476;7.134;2023-03-23T10:01:17;2.10;;;0.80;;
20142;SDS011;10509;46.476;7.134;2023-03-23T10:03:45;2.23;;;0.80;;
20142;SDS011;10509;46.476;7.134;2023-03-23T10:06:13;2.47;;;0.80;;
20142;SDS011;10509;46.476;7.134;2023-03-23T10:08:44;1.73;;;0.80;;
20142;SDS011;10509;46.476;7.134;2023-03-23T10:16:08;1.93;;;0.90;;
20142;SDS011;10509;46.476;7.134;2023-03-23T10:18:41;1.90;;;0.90;;
20142;SDS011;10509;46.476;7.134;2023-03-23T10:21:10;2.27;;;0.90;;
20142;SDS011;10509;46.476;7.134;2023-03-23T10:26:08;3.60;;;1.00;;
20142;SDS011;10509;46.476;7.134;2023-03-23T10:28:36;3.33;;;1.13;;
20142;SDS011;10509;46.476;7.134;2023-03-23T10:31:03;2.83;;;1.00;;
20142;SDS011;10509;46.476;7.134;2023-03-23T10:33:38;15.17;;;2.20;;
20142;SDS011;10509;46.476;7.134;2023-03-23T10:36:15;3.13;;;1.10;;
20142;SDS011;10509;46.476;7.134;2023-03-23T10:38:49;3.53;;;1.03;;
20142;SDS011;10509;46.476;7.134;2023-03-23T10:41:16;2.37;;;1.00;;
20142;SDS011;10509;46.476;7.134;2023-03-23T10:43:43;2.77;;;1.00;;
20142;SDS011;10509;46.476;7.134;2023-03-23T10:48:54;2.27;;;1.00;;
20142;SDS011;10509;46.476;7.134;2023-03-23T10:51:25;1.03;;;0.80;;
20142;SDS011;10509;46.476;7.134;2023-03-23T10:53:56;3.73;;;1.00;;
20142;SDS011;10509;46.476;7.134;2023-03-23T10:58:48;6.83;;;1.43;;
20142;SDS011;10509;46.476;7.134;2023-03-23T11:01:14;1.60;;;1.00;;
20142;SDS011;10509;46.476;7.134;2023-03-23T11:03:44;4.67;;;1.00;;
20142;SDS011;10509;46.476;7.134;2023-03-23T11:06:34;3.70;;;1.13;;
20142;SDS011;10509;46.476;7.134;2023-03-23T11:09:17;4.40;;;1.40;;
20142;SDS011;10509;46.476;7.134;2023-03-23T11:11:51;9.17;;;1.80;;
20142;SDS011;10509;46.476;7.134;2023-03-23T11:16:54;3.10;;;1.00;;
20142;SDS011;10509;46.476;7.134;2023-03-23T11:19:30;3.10;;;1.13;;
20142;SDS011;10509;46.476;7.134;2023-03-23T11:24:32;2.00;;;1.20;;
20142;SDS011;10509;46.476;7.134;2023-03-23T11:26:59;1.93;;;1.20;;
20142;SDS011;10509;46.476;7.134;2023-03-23T11:29:26;1.23;;;1.00;;
20142;SDS011;10509;46.476;7.134;2023-03-23T11:31:54;1.23;;;1.10;;
20142;SDS011;10509;46.476;7.134;2023-03-23T11:34:35;2.47;;;1.13;;
20142;SDS011;10509;46.476;7.134;2023-03-23T11:39:32;1.37;;;1.07;;
20142;SDS011;10509;46.476;7.134;2023-03-23T11:41:59;2.17;;;1.10;;
20142;SDS011;10509;46.476;7.134;2023-03-23T11:44:33;1.13;;;0.93;;
20142;SDS011;10509;46.476;7.134;2023-03-23T11:47:13;2.23;;;1.10;;
20142;SDS011;10509;46.476;7.134;2023-03-23T11:49:43;2.00;;;1.10;;
20142;SDS011;10509;46.476;7.134;2023-03-23T11:52:19;2.60;;;1.20;;
20142;SDS011;10509;46.476;7.134;2023-03-23T11:54:48;3.50;;;1.57;;
20142;SDS011;10509;46.476;7.134;2023-03-23T11:57:16;2.20;;;1.20;;
20142;SDS011;10509;46.476;7.134;2023-03-23T11:59:43;3.50;;;1.53;;
20142;SDS011;10509;46.476;7.134;2023-03-23T12:10:00;4.37;;;1.10;;
20142;SDS011;10509;46.476;7.134;2023-03-23T12:17:33;3.03;;;1.30;;
20142;SDS011;10509;46.476;7.134;2023-03-23T12:37:57;3.00;;;1.30;;
20142;SDS011;10509;46.476;7.134;2023-03-23T12:43:20;2.40;;;1.03;;
20142;SDS011;10509;46.476;7.134;2023-03-23T12:48:19;1.57;;;0.93;;
20142;SDS011;10509;46.476;7.134;2023-03-23T12:53:36;1.87;;;1.00;;
20142;SDS011;10509;46.476;7.134;2023-03-23T12:58:38;5.97;;;1.17;;
20142;SDS011;10509;46.476;7.134;2023-03-23T13:01:08;4.07;;;1.47;;
20142;SDS011;10509;46.476;7.134;2023-03-23T13:03:42;5.77;;;1.10;;
20142;SDS011;10509;46.476;7.134;2023-03-23T13:06:15;4.40;;;0.97;;
20142;SDS011;10509;46.476;7.134;2023-03-23T13:08:47;1.00;;;0.90;;
20142;SDS011;10509;46.476;7.134;2023-03-23T13:11:16;2.00;;;0.80;;
20142;SDS011;10509;46.476;7.134;2023-03-23T13:13:52;2.10;;;0.90;;
20142;SDS011;10509;46.476;7.134;2023-03-23T13:18:57;2.13;;;0.90;;
20142;SDS011;10509;46.476;7.134;2023-03-23T13:21:32;3.23;;;0.97;;
20142;SDS011;10509;46.476;7.134;2023-03-23T13:24:04;4.17;;;0.90;;
20142;SDS011;10509;46.476;7.134;2023-03-23T13:26:31;1.00;;;0.80;;
20142;SDS011;10509;46.476;7.134;2023-03-23T13:28:58;2.80;;;0.90;;
20142;SDS011;10509;46.476;7.134;2023-03-23T13:31:28;9.43;;;1.33;;
20142;SDS011;10509;46.476;7.134;2023-03-23T13:34:04;1.33;;;0.80;;
20142;SDS011;10509;46.476;7.134;2023-03-23T13:36:34;0.83;;;0.70;;
20142;SDS011;10509;46.476;7.134;2023-03-23T13:39:01;2.73;;;1.10;;
20142;SDS011;10509;46.476;7.134;2023-03-23T13:41:29;1.80;;;0.73;;
20142;SDS011;10509;46.476;7.134;2023-03-23T13:44:13;1.80;;;0.93;;
20142;SDS011;10509;46.476;7.134;2023-03-23T13:46:41;12.47;;;1.60;;
20142;SDS011;10509;46.476;7.134;2023-03-23T13:51:47;1.20;;;0.87;;
20142;SDS011;10509;46.476;7.134;2023-03-23T13:56:41;3.50;;;0.93;;
20142;SDS011;10509;46.476;7.134;2023-03-23T13:59:13;2.50;;;0.90;;
20142;SDS011;10509;46.476;7.134;2023-03-23T14:01:40;11.00;;;1.43;;
20142;SDS011;10509;46.476;7.134;2023-03-23T14:04:10;1.50;;;0.90;;
20142;SDS011;10509;46.476;7.134;2023-03-23T14:06:39;1.27;;;0.90;;
20142;SDS011;10509;46.476;7.134;2023-03-23T14:11:45;2.37;;;0.90;;
20142;SDS011;10509;46.476;7.134;2023-03-23T14:14:14;18.37;;;1.60;;
20142;SDS011;10509;46.476;7.134;2023-03-23T14:16:43;4.50;;;1.00;;
20142;SDS011;10509;46.476;7.134;2023-03-23T14:19:23;3.37;;;0.93;;
20142;SDS011;10509;46.476;7.134;2023-03-23T14:22:00;5.00;;;1.00;;
20142;SDS011;10509;46.476;7.134;2023-03-23T14:24:31;1.40;;;1.00;;
20142;SDS011;10509;46.476;7.134;2023-03-23T14:27:03;4.60;;;1.00;;
20142;SDS011;10509;46.476;7.134;2023-03-23T14:29:34;6.43;;;1.03;;
20142;SDS011;10509;46.476;7.134;2023-03-23T14:32:00;3.80;;;1.00;;
20142;SDS011;10509;46.476;7.134;2023-03-23T14:34:30;3.33;;;1.10;;
20142;SDS011;10509;46.476;7.134;2023-03-23T14:36:57;1.97;;;1.10;;
20142;SDS011;10509;46.476;7.134;2023-03-23T14:41:51;3.43;;;1.20;;
20142;SDS011;10509;46.476;7.134;2023-03-23T14:44:21;3.23;;;1.40;;
20142;SDS011;10509;46.476;7.134;2023-03-23T14:46:48;1.50;;;0.90;;
20142;SDS011;10509;46.476;7.134;2023-03-23T14:49:15;1.20;;;0.80;;
20142;SDS011;10509;46.476;7.134;2023-03-23T14:51:51;1.73;;;1.17;;
20142;SDS011;10509;46.476;7.134;2023-03-23T14:54:27;1.33;;;1.00;;
20142;SDS011;10509;46.476;7.134;2023-03-23T14:56:54;4.47;;;1.43;;
20142;SDS011;10509;46.476;7.134;2023-03-23T14:59:20;4.07;;;1.17;;
20142;SDS011;10509;46.476;7.134;2023-03-23T15:01:47;3.30;;;1.53;;
20142;SDS011;10509;46.476;7.134;2023-03-23T15:06:40;2.23;;;1.57;;
20142;SDS011;10509;46.476;7.134;2023-03-23T15:09:12;2.43;;;1.30;;
20142;SDS011;10509;46.476;7.134;2023-03-23T15:11:39;2.70;;;2.10;;
20142;SDS011;10509;46.476;7.134;2023-03-23T15:16:34;2.83;;;1.60;;
20142;SDS011;10509;46.476;7.134;2023-03-23T15:19:10;2.97;;;1.57;;
20142;SDS011;10509;46.476;7.134;2023-03-23T15:24:24;1.40;;;1.03;;
20142;SDS011;10509;46.476;7.134;2023-03-23T15:26:51;2.43;;;1.27;;
20142;SDS011;10509;46.476;7.134;2023-03-23T15:29:18;1.53;;;1.40;;
20142;SDS011;10509;46.476;7.134;2023-03-23T15:31:53;3.10;;;1.70;;
20142;SDS011;10509;46.476;7.134;2023-03-23T15:36:50;2.43;;;1.47;;
20142;SDS011;10509;46.476;7.134;2023-03-23T15:39:16;1.90;;;1.20;;
20142;SDS011;10509;46.476;7.134;2023-03-23T15:41:49;2.77;;;1.40;;
20142;SDS011;10509;46.476;7.134;2023-03-23T15:44:22;1.93;;;1.43;;
20142;SDS011;10509;46.476;7.134;2023-03-23T15:46:50;2.10;;;1.60;;
20142;SDS011;10509;46.476;7.134;2023-03-23T15:49:17;2.23;;;1.37;;
20142;SDS011;10509;46.476;7.134;2023-03-23T15:51:43;2.53;;;1.20;;
20142;SDS011;10509;46.476;7.134;2023-03-23T15:54:13;1.40;;;1.30;;
20142;SDS011;10509;46.476;7.134;2023-03-23T15:56:40;2.73;;;2.10;;
20142;SDS011;10509;46.476;7.134;2023-03-23T15:59:07;4.13;;;3.03;;
20142;SDS011;10509;46.476;7.134;2023-03-23T16:01:33;3.73;;;3.27;;
20142;SDS011;10509;46.476;7.134;2023-03-23T16:04:12;4.27;;;2.10;;
20142;SDS011;10509;46.476;7.134;2023-03-23T16:06:39;3.53;;;1.80;;
20142;SDS011;10509;46.476;7.134;2023-03-23T16:09:06;2.00;;;1.77;;
20142;SDS011;10509;46.476;7.134;2023-03-23T16:11:35;3.30;;;1.77;;
20142;SDS011;10509;46.476;7.134;2023-03-23T16:14:01;2.47;;;1.70;;
20142;SDS011;10509;46.476;7.134;2023-03-23T16:16:48;1.70;;;1.20;;
20142;SDS011;10509;46.476;7.134;2023-03-23T16:19:14;2.30;;;1.43;;
20142;SDS011;10509;46.476;7.134;2023-03-23T16:21:40;2.17;;;1.23;;
20142;SDS011;10509;46.476;7.134;2023-03-23T16:24:07;1.53;;;0.90;;
20142;SDS011;10509;46.476;7.134;2023-03-23T16:26:33;1.50;;;1.10;;
20142;SDS011;10509;46.476;7.134;2023-03-23T16:28:59;1.43;;;0.90;;
20142;SDS011;10509;46.476;7.134;2023-03-23T16:31:27;0.90;;;0.70;;
20142;SDS011;10509;46.476;7.134;2023-03-23T16:33:53;1.10;;;0.90;;
20142;SDS011;10509;46.476;7.134;2023-03-23T16:36:19;1.77;;;1.10;;
20142;SDS011;10509;46.476;7.134;2023-03-23T16:38:45;1.07;;;0.90;;
20142;SDS011;10509;46.476;7.134;2023-03-23T16:41:11;1.50;;;1.10;;
20142;SDS011;10509;46.476;7.134;2023-03-23T16:43:37;1.60;;;1.00;;
20142;SDS011;10509;46.476;7.134;2023-03-23T16:46:03;1.73;;;1.00;;
20142;SDS011;10509;46.476;7.134;2023-03-23T16:48:30;2.20;;;1.60;;
20142;SDS011;10509;46.476;7.134;2023-03-23T16:50:56;1.93;;;1.63;;
20142;SDS011;10509;46.476;7.134;2023-03-23T16:53:22;3.70;;;1.10;;
20142;SDS011;10509;46.476;7.134;2023-03-23T16:55:49;1.83;;;1.60;;
20142;SDS011;10509;46.476;7.134;2023-03-23T16:58:16;1.60;;;1.40;;
20142;SDS011;10509;46.476;7.134;2023-03-23T17:00:42;2.60;;;2.40;;
20142;SDS011;10509;46.476;7.134;2023-03-23T17:03:08;4.17;;;1.67;;